< < Back
Terminal Aerodrome Forecast


Current Version              Previous Versions:   1  2  3  4  5  6  7  8  9  

Terminal Aerodrome Forecast

895
FTUS42 KJAX 211700
TAFSSI
TAF
KSSI 211720Z 2118/2218 05008KT P6SM SKC
     FM220000 VRB02KT P6SM SKC
     FM221200 36010KT P6SM SKC=

Latest METAR

329
SAUS70 KWBC 212200
MTRSSI
METAR KSSI 212153Z AUTO 16005KT 10SM CLR 24/17 A2990 RMK AO2 SLP125
T02390172


USA.gov is the U.S. government's official web portal to all federal, state and local government web resources and services.